DLH882 EDDF-EETN
Flight info
| Callsign | DLH882 |
|---|---|
| Flight time | N/A |
| Altitude | 37000 |
| Route | MARUN3W/25C MARUN Y150 TOLGI DCT GARLU DCT BANUB Z131 GOSOT DCT EVONA DCT ETHUV DCT ADBIB DCT SULUN |
| Aircraft | A319/M-SDE2E3FGIJ1LORWXYZ/HB1 |
Departure
| Time | 2026-05-05 11:31 |
|---|---|
| Airport | Frankfurt Main Airport (EDDF) |
Arrival
| Time | N/A |
|---|---|
| Airport | Lennart Meri Tallinn Airport (EETN) |
| Time | Latitude | Longitude | Altitude | Speed | Heading |
|---|---|---|---|---|---|
| 2026-05-05 10:29 | 50.05005 | 8.57433 | 346 ft | 0 kts | 75° |
| 2026-05-05 11:10 | 50.04224 | 8.57513 | 347 ft | 0 kts | 250° |
| 2026-05-05 11:11 | 50.05004 | 8.57434 | 346 ft | 0 kts | 137° |
| 2026-05-05 11:12 | 50.05003 | 8.57435 | 354 ft | 1 kts | 138° |
| 2026-05-05 11:12 | 50.04991 | 8.57445 | 348 ft | 3 kts | 150° |
| 2026-05-05 11:12 | 50.04978 | 8.57455 | 351 ft | 1 kts | 155° |
| 2026-05-05 11:13 | 50.04975 | 8.57457 | 350 ft | 0 kts | 155° |
| 2026-05-05 11:14 | 50.04963 | 8.57468 | 346 ft | 4 kts | 145° |
| 2026-05-05 11:14 | 50.04943 | 8.57510 | 348 ft | 9 kts | 119° |
| 2026-05-05 11:14 | 50.04911 | 8.57614 | 352 ft | 12 kts | 115° |
| 2026-05-05 11:14 | 50.04875 | 8.57738 | 348 ft | 13 kts | 114° |
| 2026-05-05 11:15 | 50.04838 | 8.57864 | 353 ft | 13 kts | 121° |
| 2026-05-05 11:15 | 50.04791 | 8.57974 | 346 ft | 12 kts | 101° |
| 2026-05-05 11:15 | 50.04815 | 8.58104 | 346 ft | 13 kts | 70° |
| 2026-05-05 11:15 | 50.04847 | 8.58239 | 348 ft | 13 kts | 69° |
| 2026-05-05 11:16 | 50.04881 | 8.58378 | 350 ft | 14 kts | 69° |
| 2026-05-05 11:16 | 50.04915 | 8.58520 | 347 ft | 14 kts | 70° |
| 2026-05-05 11:16 | 50.04921 | 8.58655 | 350 ft | 13 kts | 128° |
| 2026-05-05 11:16 | 50.04857 | 8.58703 | 353 ft | 1 kts | 160° |
| 2026-05-05 11:17 | 50.04850 | 8.58707 | 350 ft | 0 kts | 160° |
| 2026-05-05 11:25 | 50.04846 | 8.58709 | 346 ft | 1 kts | 160° |
| 2026-05-05 11:25 | 50.04833 | 8.58716 | 370 ft | 3 kts | 160° |
| 2026-05-05 11:26 | 50.04814 | 8.58727 | 343 ft | 3 kts | 160° |
| 2026-05-05 11:26 | 50.04800 | 8.58735 | 353 ft | 0 kts | 159° |
| 2026-05-05 11:26 | 50.04797 | 8.58737 | 352 ft | 1 kts | 159° |
| 2026-05-05 11:26 | 50.04790 | 8.58741 | 349 ft | 1 kts | 159° |
| 2026-05-05 11:27 | 50.04776 | 8.58749 | 351 ft | 3 kts | 159° |
| 2026-05-05 11:27 | 50.04751 | 8.58762 | 347 ft | 4 kts | 163° |
| 2026-05-05 11:27 | 50.04720 | 8.58769 | 351 ft | 5 kts | 178° |
| 2026-05-05 11:27 | 50.04685 | 8.58765 | 346 ft | 5 kts | 185° |
| 2026-05-05 11:28 | 50.04650 | 8.58759 | 346 ft | 0 kts | 186° |
| 2026-05-05 11:28 | 50.04647 | 8.58759 | 346 ft | 1 kts | 186° |
| 2026-05-05 11:28 | 50.04642 | 8.58758 | 349 ft | 0 kts | 186° |
| 2026-05-05 11:29 | 50.04641 | 8.58757 | 349 ft | 1 kts | 186° |
| 2026-05-05 11:29 | 50.04632 | 8.58755 | 347 ft | 3 kts | 189° |
| 2026-05-05 11:29 | 50.04589 | 8.58725 | 350 ft | 18 kts | 211° |
| 2026-05-05 11:30 | 50.04485 | 8.58579 | 346 ft | 6 kts | 249° |
| 2026-05-05 11:30 | 50.04484 | 8.58574 | 351 ft | 0 kts | 249° |
| 2026-05-05 11:30 | 50.04483 | 8.58568 | 351 ft | 3 kts | 249° |
| 2026-05-05 11:31 | 50.04389 | 8.58177 | 348 ft | 77 kts | 249° |
| 2026-05-05 11:31 | 50.04122 | 8.57056 | 352 ft | 140 kts | 250° |
| 2026-05-05 11:31 | 50.03726 | 8.55401 | 450 ft | 178 kts | 250° |
| 2026-05-05 11:31 | 50.03294 | 8.53589 | 1090 ft | 179 kts | 250° |
| 2026-05-05 11:32 | 50.02857 | 8.51764 | 1767 ft | 184 kts | 249° |
| 2026-05-05 11:32 | 50.02248 | 8.49900 | 2168 ft | 204 kts | 231° |
| 2026-05-05 11:32 | 50.01137 | 8.48503 | 2803 ft | 209 kts | 206° |
| 2026-05-05 11:32 | 49.99734 | 8.47911 | 3542 ft | 210 kts | 187° |
| 2026-05-05 11:33 | 49.98298 | 8.47602 | 4479 ft | 207 kts | 188° |
| 2026-05-05 11:33 | 49.96861 | 8.47284 | 5311 ft | 209 kts | 188° |
| 2026-05-05 11:33 | 49.95427 | 8.46801 | 6092 ft | 219 kts | 197° |
| 2026-05-05 11:33 | 49.93875 | 8.46088 | 6630 ft | 240 kts | 196° |
| 2026-05-05 11:34 | 49.92306 | 8.45178 | 7376 ft | 249 kts | 211° |
| 2026-05-05 11:34 | 49.91094 | 8.43268 | 8201 ft | 256 kts | 239° |
| 2026-05-05 11:34 | 49.90617 | 8.40589 | 9059 ft | 263 kts | 269° |
| 2026-05-05 11:34 | 49.91081 | 8.37822 | 9875 ft | 272 kts | 300° |
| 2026-05-05 11:35 | 49.92427 | 8.35764 | 10645 ft | 278 kts | 330° |
| 2026-05-05 11:35 | 49.94231 | 8.34505 | 11193 ft | 294 kts | 336° |
| 2026-05-05 11:35 | 49.96195 | 8.33239 | 11476 ft | 318 kts | 337° |
| 2026-05-05 11:35 | 49.98323 | 8.31881 | 11747 ft | 340 kts | 337° |
| 2026-05-05 11:36 | 50.00539 | 8.30461 | 12365 ft | 349 kts | 336° |
| 2026-05-05 11:36 | 50.02845 | 8.29300 | 12757 ft | 354 kts | 347° |
| 2026-05-05 11:36 | 50.05317 | 8.28918 | 12850 ft | 356 kts | 0° |
| 2026-05-05 11:36 | 50.07777 | 8.29384 | 12861 ft | 356 kts | 13° |
| 2026-05-05 11:37 | 50.10131 | 8.30541 | 12862 ft | 356 kts | 19° |
| 2026-05-05 11:37 | 50.12451 | 8.31769 | 12860 ft | 356 kts | 19° |
| 2026-05-05 11:37 | 50.14807 | 8.33008 | 12859 ft | 356 kts | 19° |
| 2026-05-05 11:37 | 50.17178 | 8.34249 | 13165 ft | 362 kts | 18° |
| 2026-05-05 11:38 | 50.19571 | 8.35503 | 13995 ft | 363 kts | 18° |
| 2026-05-05 11:38 | 50.21986 | 8.36773 | 14691 ft | 368 kts | 18° |
| 2026-05-05 11:38 | 50.24428 | 8.38055 | 15372 ft | 373 kts | 18° |
| 2026-05-05 11:38 | 50.26865 | 8.39332 | 16015 ft | 377 kts | 18° |
| 2026-05-05 11:39 | 50.29374 | 8.40651 | 16649 ft | 382 kts | 19° |
| 2026-05-05 11:39 | 50.31906 | 8.42001 | 17271 ft | 387 kts | 19° |
| 2026-05-05 11:39 | 50.34460 | 8.43388 | 17905 ft | 391 kts | 19° |
| 2026-05-05 11:39 | 50.37041 | 8.44806 | 18503 ft | 394 kts | 19° |
| 2026-05-05 11:40 | 50.39625 | 8.46231 | 19075 ft | 398 kts | 19° |
| 2026-05-05 11:40 | 50.42257 | 8.47678 | 19662 ft | 401 kts | 19° |
| 2026-05-05 11:40 | 50.44919 | 8.49136 | 20248 ft | 404 kts | 19° |
| 2026-05-05 11:40 | 50.47587 | 8.50596 | 20836 ft | 407 kts | 19° |
| 2026-05-05 11:41 | 50.50276 | 8.51990 | 21417 ft | 410 kts | 17° |
| 2026-05-05 11:41 | 50.52972 | 8.53297 | 21976 ft | 413 kts | 17° |
| 2026-05-05 11:41 | 50.55748 | 8.54595 | 22544 ft | 416 kts | 16° |
| 2026-05-05 11:41 | 50.58545 | 8.55886 | 23095 ft | 419 kts | 15° |
| 2026-05-05 11:42 | 50.61353 | 8.57191 | 23590 ft | 423 kts | 16° |
| 2026-05-05 11:42 | 50.64198 | 8.58528 | 24025 ft | 426 kts | 16° |
| 2026-05-05 11:42 | 50.67041 | 8.59884 | 24435 ft | 429 kts | 16° |
| 2026-05-05 11:42 | 50.69915 | 8.61272 | 24874 ft | 432 kts | 16° |
| 2026-05-05 11:43 | 50.72805 | 8.62675 | 25280 ft | 435 kts | 16° |
| 2026-05-05 11:43 | 50.75716 | 8.64091 | 25687 ft | 438 kts | 16° |
| 2026-05-05 11:43 | 50.78593 | 8.65726 | 26083 ft | 442 kts | 24° |
| 2026-05-05 11:43 | 50.81300 | 8.68101 | 26467 ft | 446 kts | 34° |
| 2026-05-05 11:44 | 50.83693 | 8.71135 | 26848 ft | 449 kts | 44° |
| 2026-05-05 11:44 | 50.85790 | 8.74819 | 27234 ft | 452 kts | 53° |
| 2026-05-05 11:44 | 50.87697 | 8.78795 | 27616 ft | 455 kts | 54° |
| 2026-05-05 11:44 | 50.89621 | 8.82815 | 28006 ft | 458 kts | 53° |
| 2026-05-05 11:45 | 50.91550 | 8.86851 | 28381 ft | 461 kts | 53° |
| 2026-05-05 11:45 | 50.93496 | 8.90928 | 28751 ft | 465 kts | 53° |
| 2026-05-05 11:45 | 50.95450 | 8.95023 | 29114 ft | 468 kts | 53° |
| 2026-05-05 11:45 | 50.97424 | 8.99165 | 29472 ft | 471 kts | 53° |
| 2026-05-05 11:46 | 50.99390 | 9.03293 | 29839 ft | 474 kts | 53° |
| 2026-05-05 11:46 | 51.01383 | 9.07490 | 30164 ft | 476 kts | 53° |
| 2026-05-05 11:46 | 51.03390 | 9.11726 | 30445 ft | 479 kts | 53° |
| 2026-05-05 11:46 | 51.05401 | 9.15978 | 30743 ft | 482 kts | 53° |
| 2026-05-05 11:47 | 51.07496 | 9.20186 | 31013 ft | 485 kts | 48° |
| 2026-05-05 11:47 | 51.09950 | 9.23904 | 31269 ft | 488 kts | 38° |
| 2026-05-05 11:47 | 51.12706 | 9.26942 | 31549 ft | 489 kts | 28° |
| 2026-05-05 11:47 | 51.15756 | 9.29290 | 31928 ft | 486 kts | 19° |
| 2026-05-05 11:48 | 51.22273 | 9.32019 | 32708 ft | 482 kts | 8° |
| 2026-05-05 11:48 | 51.25556 | 9.33155 | 33139 ft | 481 kts | 8° |
| 2026-05-05 11:48 | 51.28833 | 9.34289 | 33534 ft | 481 kts | 8° |
| 2026-05-05 11:49 | 51.32092 | 9.35415 | 33922 ft | 481 kts | 8° |
| 2026-05-05 11:49 | 51.35325 | 9.36533 | 34258 ft | 480 kts | 8° |
| 2026-05-05 11:49 | 51.38609 | 9.37675 | 34628 ft | 480 kts | 8° |
| 2026-05-05 11:49 | 51.41844 | 9.38808 | 34975 ft | 479 kts | 8° |
| 2026-05-05 11:50 | 51.45082 | 9.39943 | 35336 ft | 478 kts | 8° |
| 2026-05-05 11:50 | 51.48336 | 9.41085 | 35706 ft | 476 kts | 8° |
| 2026-05-05 11:50 | 51.51562 | 9.42222 | 36044 ft | 475 kts | 8° |
| 2026-05-05 11:50 | 51.54801 | 9.43365 | 36359 ft | 474 kts | 8° |
| 2026-05-05 11:51 | 51.58031 | 9.44501 | 36648 ft | 474 kts | 8° |
| 2026-05-05 11:51 | 51.61224 | 9.45621 | 36830 ft | 474 kts | 9° |
| 2026-05-05 11:51 | 51.67682 | 9.47891 | 36877 ft | 473 kts | 8° |
| 2026-05-05 11:52 | 51.74069 | 9.50146 | 36868 ft | 472 kts | 8° |
| 2026-05-05 11:52 | 51.80427 | 9.52867 | 36874 ft | 476 kts | 19° |
| 2026-05-05 11:53 | 51.86160 | 9.58351 | 36873 ft | 481 kts | 39° |
| 2026-05-05 11:53 | 51.91018 | 9.65751 | 36877 ft | 482 kts | 42° |
| 2026-05-05 11:54 | 51.95885 | 9.73241 | 36878 ft | 482 kts | 42° |
| 2026-05-05 11:54 | 52.00752 | 9.80743 | 36887 ft | 482 kts | 42° |
| 2026-05-05 11:55 | 52.05606 | 9.88289 | 36889 ft | 482 kts | 42° |
| 2026-05-05 11:55 | 52.10417 | 9.95806 | 36904 ft | 482 kts | 42° |
| 2026-05-05 11:56 | 52.15252 | 10.03385 | 36899 ft | 481 kts | 42° |